createdAt,value
2022-08-02T00:02:08.734Z,21.40
2022-08-02T00:05:14.379Z,21.36
2022-08-02T00:08:17.424Z,21.32
2022-08-02T00:11:20.766Z,21.26
2022-08-02T00:14:23.662Z,21.19
2022-08-02T00:17:27.156Z,21.14
2022-08-02T00:20:31.547Z,21.06
2022-08-02T00:23:34.794Z,21.02
2022-08-02T00:26:57.566Z,20.88
2022-08-02T00:30:00.825Z,20.85
2022-08-02T00:33:05.562Z,20.79
2022-08-02T00:36:10.167Z,20.72
2022-08-02T00:39:33.490Z,20.66
2022-08-02T00:42:36.097Z,20.61
2022-08-02T00:46:03.416Z,20.57
2022-08-02T00:49:04.827Z,20.53
2022-08-02T00:52:11.150Z,20.52
2022-08-02T00:55:17.373Z,20.53
2022-08-02T00:58:21.827Z,20.54
2022-08-02T01:01:38.843Z,20.54
2022-08-02T01:05:01.010Z,20.56
2022-08-02T01:08:05.356Z,20.54
2022-08-02T01:11:08.559Z,20.51
2022-08-02T01:14:15.152Z,20.51
2022-08-02T01:17:24.541Z,20.42
2022-08-02T01:20:54.630Z,20.36
2022-08-02T01:24:18.323Z,20.32
2022-08-02T01:27:41.525Z,20.22
2022-08-02T01:30:48.975Z,20.16
2022-08-02T01:34:00.499Z,20.10
2022-08-02T01:37:07.112Z,20.06
2022-08-02T01:40:13.424Z,20.03
2022-08-02T01:43:18.360Z,20.02
2022-08-02T01:46:24.615Z,20.03
2022-08-02T01:49:31.254Z,20.03
2022-08-02T01:52:38.561Z,20.04
2022-08-02T01:55:57.753Z,20.05
2022-08-02T01:59:03.161Z,20.05
2022-08-02T02:02:09.878Z,20.05
2022-08-02T02:05:15.845Z,20.00
2022-08-02T02:08:27.311Z,19.89
2022-08-02T02:12:09.627Z,19.94
2022-08-02T02:14:55.760Z,19.92
2022-08-02T02:18:13.066Z,19.90
2022-08-02T02:21:17.123Z,19.88
2022-08-02T02:24:19.906Z,19.85
2022-08-02T02:27:25.184Z,19.81
2022-08-02T02:30:30.374Z,19.74
2022-08-02T02:33:36.428Z,19.68
2022-08-02T02:36:41.307Z,19.63
2022-08-02T02:39:46.039Z,19.63
2022-08-02T02:42:49.873Z,19.56
2022-08-02T02:45:54.111Z,19.49
2022-08-02T02:48:59.856Z,19.46
2022-08-02T02:52:04.020Z,19.41
2022-08-02T02:55:11.513Z,19.36
2022-08-02T02:58:14.979Z,19.30
2022-08-02T03:01:53.117Z,19.21
2022-08-02T03:04:58.272Z,19.17
2022-08-02T03:08:01.608Z,19.12
2022-08-02T03:11:05.261Z,19.08
2022-08-02T03:14:12.449Z,19.05
2022-08-02T03:17:16.461Z,19.03
2022-08-02T03:20:23.010Z,19.00
2022-08-02T03:23:25.717Z,19.00
2022-08-02T03:26:28.865Z,18.97
2022-08-02T03:29:34.656Z,18.92
2022-08-02T03:32:40.088Z,18.89
2022-08-02T03:35:45.048Z,18.87
2022-08-02T03:38:48.925Z,18.84
2022-08-02T03:41:52.272Z,18.82
2022-08-02T03:44:57.562Z,18.82
2022-08-02T03:48:01.115Z,18.80
2022-08-02T03:51:07.373Z,18.80
2022-08-02T03:54:11.313Z,18.81
2022-08-02T03:57:15.452Z,18.84
2022-08-02T04:00:21.334Z,18.80
2022-08-02T04:03:24.011Z,18.88
2022-08-02T04:06:28.610Z,18.89
2022-08-02T04:09:31.978Z,18.87
2022-08-02T04:12:34.968Z,18.84
2022-08-02T04:15:39.651Z,18.83
2022-08-02T04:18:50.592Z,18.89
2022-08-02T04:21:55.910Z,18.75
2022-08-02T04:25:03.091Z,18.86
2022-08-02T04:28:16.675Z,18.94
2022-08-02T04:31:21.681Z,18.88
2022-08-02T04:34:24.607Z,19.03
2022-08-02T04:37:30.746Z,19.08
2022-08-02T04:40:34.014Z,19.11
2022-08-02T04:43:36.839Z,19.11
2022-08-02T04:46:41.022Z,19.13
2022-08-02T04:49:43.904Z,19.16
2022-08-02T04:52:48.557Z,19.20
2022-08-02T04:55:51.478Z,19.26
2022-08-02T04:58:56.032Z,19.30
2022-08-02T05:01:58.703Z,19.34
2022-08-02T05:05:04.610Z,19.37
2022-08-02T05:08:11.381Z,19.49
2022-08-02T05:11:14.528Z,19.58
2022-08-02T05:14:17.417Z,19.62
2022-08-02T05:17:20.672Z,19.80
2022-08-02T05:20:23.402Z,20.00
2022-08-02T05:23:27.535Z,20.37
2022-08-02T05:26:31.065Z,20.42
2022-08-02T05:29:34.137Z,20.54
2022-08-02T05:32:43.358Z,20.65
2022-08-02T05:35:48.548Z,20.74
2022-08-02T05:38:53.232Z,20.91
2022-08-02T05:42:05.909Z,21.11
2022-08-02T05:45:15.416Z,21.32
2022-08-02T05:48:27.817Z,21.55
2022-08-02T05:51:41.820Z,22.71
2022-08-02T05:54:55.994Z,24.00
2022-08-02T05:58:07.365Z,24.69
2022-08-02T06:01:19.027Z,24.83
2022-08-02T06:04:27.645Z,25.02
2022-08-02T06:07:32.257Z,25.36
2022-08-02T06:10:40.710Z,25.84
2022-08-02T06:13:49.232Z,26.01
2022-08-02T06:16:54.741Z,26.18
2022-08-02T06:19:58.889Z,26.46
2022-08-02T06:23:02.915Z,26.66
2022-08-02T06:26:10.325Z,26.92
2022-08-02T06:29:14.110Z,27.09
2022-08-02T06:32:19.451Z,27.03
2022-08-02T06:35:22.890Z,27.44
2022-08-02T06:38:30.104Z,27.91
2022-08-02T06:41:43.642Z,28.41
2022-08-02T06:44:48.714Z,28.69
2022-08-02T06:47:52.984Z,28.87
2022-08-02T06:50:55.764Z,29.18
2022-08-02T06:53:58.513Z,29.41
2022-08-02T06:57:03.040Z,29.58
2022-08-02T07:00:09.487Z,29.76
2022-08-02T07:03:12.518Z,29.85
2022-08-02T07:06:15.841Z,30.12
2022-08-02T07:09:21.017Z,30.11
2022-08-02T07:12:26.176Z,29.85
2022-08-02T07:15:29.069Z,29.73
2022-08-02T07:18:32.589Z,29.73
2022-08-02T07:21:56.947Z,29.67
2022-08-02T07:25:00.942Z,29.82
2022-08-02T07:28:05.842Z,30.01
2022-08-02T07:31:08.559Z,30.13
2022-08-02T07:34:11.496Z,30.21
2022-08-02T07:37:35.992Z,29.95
2022-08-02T07:40:37.926Z,30.18
2022-08-02T07:43:43.892Z,29.98
2022-08-02T07:46:47.227Z,29.83
2022-08-02T07:49:50.477Z,29.60
2022-08-02T07:52:57.280Z,29.62
2022-08-02T07:56:00.857Z,29.57
2022-08-02T07:59:05.025Z,29.74
2022-08-02T08:02:08.457Z,29.35
2022-08-02T08:05:12.022Z,29.29
2022-08-02T08:08:17.564Z,29.17
2022-08-02T08:11:20.599Z,28.69
2022-08-02T08:14:24.668Z,28.36
2022-08-02T08:17:27.483Z,28.02
2022-08-02T08:20:30.752Z,27.34
2022-08-02T08:23:34.011Z,26.87
2022-08-02T08:26:36.723Z,26.55
2022-08-02T08:29:41.626Z,26.36
2022-08-02T08:32:44.473Z,26.22
2022-08-02T08:35:48.215Z,26.12
2022-08-02T08:38:51.184Z,25.95
2022-08-02T08:41:53.886Z,25.93
2022-08-02T08:44:58.598Z,25.96
2022-08-02T08:48:02.933Z,25.97
2022-08-02T08:51:09.017Z,26.01
2022-08-02T08:54:16.319Z,26.04
2022-08-02T08:57:20.669Z,26.06
2022-08-02T09:00:24.822Z,26.16
2022-08-02T09:03:27.533Z,26.19
2022-08-02T09:06:36.829Z,26.23
2022-08-02T09:09:39.680Z,26.31
2022-08-02T09:12:42.429Z,26.31
2022-08-02T09:15:53.931Z,26.38
2022-08-02T09:18:57.007Z,26.43
2022-08-02T09:22:03.891Z,26.35
2022-08-02T09:25:16.630Z,26.47
2022-08-02T09:28:19.780Z,26.31
2022-08-02T09:31:25.097Z,26.24
2022-08-02T09:34:44.206Z,26.23
2022-08-02T09:37:48.716Z,26.33
2022-08-02T09:40:51.459Z,26.39
2022-08-02T09:44:05.260Z,26.46
2022-08-02T09:47:17.647Z,26.71
2022-08-02T09:50:20.594Z,26.83
2022-08-02T09:53:24.895Z,26.85
2022-08-02T09:56:40.826Z,26.74
2022-08-02T09:59:54.571Z,26.69
2022-08-02T10:03:22.248Z,26.85
2022-08-02T10:06:26.263Z,26.77
2022-08-02T10:09:29.706Z,26.82
2022-08-02T10:12:32.734Z,26.98
2022-08-02T10:15:36.240Z,27.00
2022-08-02T10:18:41.448Z,27.07
2022-08-02T10:21:48.230Z,27.06
2022-08-02T10:24:53.129Z,27.13
2022-08-02T10:28:05.239Z,27.15
2022-08-02T10:31:11.138Z,27.24
2022-08-02T10:34:19.894Z,27.28
2022-08-02T10:37:31.120Z,27.29
2022-08-02T10:40:45.339Z,27.46
2022-08-02T10:43:51.289Z,27.46
2022-08-02T10:47:15.236Z,27.54
2022-08-02T10:50:19.572Z,27.69
2022-08-02T10:53:27.109Z,27.84
2022-08-02T10:56:47.661Z,28.00
2022-08-02T10:59:53.032Z,27.99
2022-08-02T11:02:55.892Z,27.94
2022-08-02T11:06:05.428Z,27.80
2022-08-02T11:09:31.981Z,27.79
2022-08-02T11:13:03.480Z,27.71
2022-08-02T11:16:11.490Z,27.88
2022-08-02T11:19:15.164Z,28.07
2022-08-02T11:22:25.210Z,28.26
2022-08-02T11:26:00.966Z,28.38
2022-08-02T11:28:57.253Z,28.49
2022-08-02T11:32:00.183Z,28.66
2022-08-02T11:35:04.353Z,28.80
2022-08-02T11:38:16.559Z,28.95
2022-08-02T11:41:47.000Z,28.96
2022-08-02T11:44:43.662Z,28.87
2022-08-02T11:47:47.437Z,28.85
2022-08-02T11:51:04.136Z,29.02
2022-08-02T11:54:08.545Z,29.07
2022-08-02T11:57:18.509Z,29.14
2022-08-02T12:00:23.500Z,29.24
2022-08-02T12:03:36.659Z,29.29
2022-08-02T12:06:39.474Z,29.38
2022-08-02T12:09:44.345Z,29.47
2022-08-02T12:12:51.796Z,29.58
2022-08-02T12:16:16.592Z,29.66
2022-08-02T12:19:19.199Z,29.78
2022-08-02T12:22:27.255Z,29.74
2022-08-02T12:25:34.694Z,29.71
2022-08-02T12:28:40.472Z,29.74
2022-08-02T12:31:57.593Z,29.79
2022-08-02T12:35:10.476Z,29.91
2022-08-02T12:38:13.879Z,29.97
2022-08-02T12:41:30.899Z,29.89
2022-08-02T12:44:37.111Z,30.02
2022-08-02T12:47:48.825Z,30.10
2022-08-02T12:50:51.789Z,30.21
2022-08-02T12:53:59.965Z,30.31
2022-08-02T12:57:12.728Z,30.43
2022-08-02T13:00:24.519Z,30.50
2022-08-02T13:04:10.851Z,30.64
2022-08-02T13:06:50.479Z,30.77
2022-08-02T13:10:02.651Z,30.86
2022-08-02T13:13:07.623Z,30.93
2022-08-02T13:16:11.725Z,30.97
2022-08-02T13:19:15.941Z,31.02
2022-08-02T13:22:19.226Z,31.06
2022-08-02T13:25:23.271Z,30.88
2022-08-02T13:28:27.917Z,30.69
2022-08-02T13:31:36.609Z,30.62
2022-08-02T13:34:40.063Z,30.63
2022-08-02T13:37:43.059Z,30.63
2022-08-02T13:41:04.830Z,30.66
2022-08-02T13:44:10.931Z,30.72
2022-08-02T13:47:13.967Z,30.83
2022-08-02T13:50:17.472Z,31.04
2022-08-02T13:53:20.356Z,31.11
2022-08-02T13:56:35.487Z,31.25
2022-08-02T13:59:57.199Z,31.28
2022-08-02T14:03:01.602Z,31.25
2022-08-02T14:06:06.696Z,31.11
2022-08-02T14:09:09.596Z,31.09
2022-08-02T14:12:18.411Z,31.03
2022-08-02T14:15:22.875Z,31.01
2022-08-02T14:18:25.577Z,30.96
2022-08-02T14:21:28.328Z,31.01
2022-08-02T14:24:31.948Z,31.06
2022-08-02T14:27:38.663Z,31.07
2022-08-02T14:30:44.054Z,31.14
2022-08-02T14:33:46.789Z,31.16
2022-08-02T14:36:53.644Z,31.13
2022-08-02T14:40:00.532Z,31.29
2022-08-02T14:43:04.496Z,31.30
2022-08-02T14:46:09.404Z,31.26
2022-08-02T14:49:14.619Z,31.21
2022-08-02T14:52:27.073Z,31.37
2022-08-02T14:55:29.791Z,31.43
2022-08-02T14:58:32.758Z,31.46
2022-08-02T15:01:37.663Z,31.43
2022-08-02T15:04:42.656Z,31.36
2022-08-02T15:07:49.517Z,31.33
2022-08-02T15:10:52.568Z,31.34
2022-08-02T15:13:55.246Z,31.37
2022-08-02T15:17:03.036Z,31.48
2022-08-02T15:20:25.843Z,31.56
2022-08-02T15:23:37.575Z,31.50
2022-08-02T15:26:41.327Z,31.47
2022-08-02T15:29:45.897Z,31.41
2022-08-02T15:32:53.008Z,31.48
2022-08-02T15:35:56.434Z,31.63
2022-08-02T15:38:59.257Z,31.52
2022-08-02T15:42:02.058Z,31.41
2022-08-02T15:45:05.493Z,31.47
2022-08-02T15:48:09.714Z,31.51
2022-08-02T15:51:12.496Z,31.49
2022-08-02T15:54:15.240Z,31.40
2022-08-02T15:57:17.916Z,31.50
2022-08-02T16:00:22.417Z,31.59
2022-08-02T16:03:26.424Z,31.54
2022-08-02T16:06:29.421Z,31.40
2022-08-02T16:09:32.482Z,31.42
2022-08-02T16:12:35.157Z,31.32
2022-08-02T16:15:38.346Z,31.07
2022-08-02T16:18:42.537Z,30.99
2022-08-02T16:21:45.384Z,30.93
2022-08-02T16:24:48.341Z,30.81
2022-08-02T16:27:57.865Z,30.73
2022-08-02T16:31:11.652Z,30.61
2022-08-02T16:34:15.963Z,30.52
2022-08-02T16:37:18.653Z,30.40
2022-08-02T16:40:22.100Z,30.26
2022-08-02T16:43:25.165Z,30.23
2022-08-02T16:46:30.356Z,30.19
2022-08-02T16:50:04.699Z,30.11
2022-08-02T16:52:58.870Z,30.11
2022-08-02T16:56:01.804Z,30.04
2022-08-02T16:59:04.677Z,29.91
2022-08-02T17:02:18.358Z,29.79
2022-08-02T17:05:24.122Z,29.73
2022-08-02T17:08:40.489Z,29.70
2022-08-02T17:11:57.868Z,29.72
2022-08-02T17:16:08.351Z,29.74
2022-08-02T17:18:26.749Z,29.72
2022-08-02T17:21:31.852Z,29.68
2022-08-02T17:24:34.731Z,29.61
2022-08-02T17:27:37.698Z,29.52
2022-08-02T17:30:40.759Z,29.37
2022-08-02T17:33:43.696Z,29.27
2022-08-02T17:36:49.749Z,29.14
2022-08-02T17:39:52.611Z,28.99
2022-08-02T17:42:55.729Z,28.86
2022-08-02T17:46:02.630Z,28.71
2022-08-02T17:49:20.633Z,28.56
2022-08-02T17:52:51.281Z,28.43
2022-08-02T17:55:50.937Z,28.24
2022-08-02T17:58:54.143Z,28.09
2022-08-02T18:01:58.679Z,27.92
2022-08-02T18:05:11.865Z,27.77
2022-08-02T18:08:21.285Z,27.59
2022-08-02T18:11:52.014Z,27.46
2022-08-02T18:14:49.344Z,27.31
2022-08-02T18:17:54.724Z,27.19
2022-08-02T18:21:15.994Z,27.05
2022-08-02T18:24:25.819Z,26.89
2022-08-02T18:27:31.588Z,26.80
2022-08-02T18:30:35.625Z,26.73
2022-08-02T18:34:00.517Z,26.63
2022-08-02T18:37:01.825Z,26.51
2022-08-02T18:40:07.013Z,26.38
2022-08-02T18:43:09.821Z,26.26
2022-08-02T18:46:20.208Z,26.15
2022-08-02T18:49:24.059Z,26.08
2022-08-02T18:52:32.838Z,25.99
2022-08-02T18:55:59.817Z,25.90
2022-08-02T18:59:02.927Z,25.75
2022-08-02T19:02:06.033Z,25.57
2022-08-02T19:05:10.492Z,25.45
2022-08-02T19:08:13.200Z,25.27
2022-08-02T19:11:17.216Z,25.24
2022-08-02T19:14:27.512Z,25.17
2022-08-02T19:17:55.317Z,25.07
2022-08-02T19:20:53.661Z,24.97
2022-08-02T19:23:56.779Z,24.92
2022-08-02T19:27:13.361Z,24.86
2022-08-02T19:30:19.550Z,24.79
2022-08-02T19:33:54.380Z,24.73
2022-08-02T19:36:47.569Z,24.65
2022-08-02T19:39:50.525Z,24.55
2022-08-02T19:44:21.767Z,24.51
2022-08-02T19:46:20.632Z,24.44
2022-08-02T19:49:39.717Z,24.36
2022-08-02T19:52:43.930Z,24.29
2022-08-02T19:55:58.342Z,24.18
2022-08-02T19:59:12.990Z,24.06
2022-08-02T20:02:18.349Z,23.93
2022-08-02T20:05:24.068Z,23.82
2022-08-02T20:08:31.725Z,23.73
2022-08-02T20:11:38.709Z,23.68
2022-08-02T20:14:51.239Z,23.65
2022-08-02T20:17:54.439Z,23.59
2022-08-02T20:20:57.303Z,23.52
2022-08-02T20:24:00.241Z,23.45
2022-08-02T20:27:04.458Z,23.25
2022-08-02T20:30:09.660Z,23.35
2022-08-02T20:33:21.758Z,23.29
2022-08-02T20:36:25.574Z,23.25
2022-08-02T20:39:43.461Z,23.19
2022-08-02T20:42:47.797Z,23.12
2022-08-02T20:45:52.441Z,23.05
2022-08-02T20:48:59.475Z,22.96
2022-08-02T20:52:23.851Z,22.85
2022-08-02T20:55:30.841Z,22.79
2022-08-02T20:58:34.336Z,22.73
2022-08-02T21:01:38.925Z,22.68
2022-08-02T21:04:42.637Z,22.61
2022-08-02T21:07:47.828Z,22.55
2022-08-02T21:10:57.037Z,22.50
2022-08-02T21:14:08.544Z,22.45
2022-08-02T21:17:17.986Z,22.39
2022-08-02T21:20:27.464Z,22.32
2022-08-02T21:23:36.654Z,22.26
2022-08-02T21:26:39.478Z,22.17
2022-08-02T21:29:43.581Z,22.11
2022-08-02T21:32:50.560Z,22.07
2022-08-02T21:35:54.398Z,22.01
2022-08-02T21:38:57.939Z,21.95
2022-08-02T21:42:00.705Z,21.88
2022-08-02T21:45:16.863Z,21.83
2022-08-02T21:48:21.883Z,21.78
2022-08-02T21:51:29.302Z,21.70
2022-08-02T21:54:40.485Z,21.61
2022-08-02T21:57:43.740Z,21.60
2022-08-02T22:00:46.967Z,21.50
2022-08-02T22:03:55.621Z,21.44
2022-08-02T22:06:58.981Z,21.40
2022-08-02T22:10:01.709Z,21.36
2022-08-02T22:13:05.464Z,21.33
2022-08-02T22:16:18.325Z,21.29
2022-08-02T22:19:23.029Z,21.23
2022-08-02T22:22:28.369Z,21.19
2022-08-02T22:25:37.336Z,21.15
2022-08-02T22:28:50.497Z,21.15
2022-08-02T22:31:55.695Z,21.09
2022-08-02T22:34:59.712Z,21.02
2022-08-02T22:38:17.311Z,20.97
2022-08-02T22:41:22.410Z,20.93
2022-08-02T22:44:25.396Z,20.88
2022-08-02T22:47:28.374Z,20.82
2022-08-02T22:50:42.677Z,20.77
2022-08-02T22:53:46.548Z,20.70
2022-08-02T22:56:49.296Z,20.65
2022-08-02T22:59:52.367Z,20.59
2022-08-02T23:02:55.131Z,20.53
2022-08-02T23:05:59.777Z,20.51
2022-08-02T23:09:02.643Z,20.48
2022-08-02T23:12:06.168Z,20.46
2022-08-02T23:15:10.450Z,20.41
2022-08-02T23:18:30.582Z,20.37
2022-08-02T23:21:45.695Z,20.32
2022-08-02T23:24:58.804Z,20.29
2022-08-02T23:28:01.714Z,20.27
2022-08-02T23:31:32.165Z,20.22
2022-08-02T23:34:34.997Z,20.18
2022-08-02T23:37:59.943Z,20.16
2022-08-02T23:41:04.469Z,20.11
2022-08-02T23:44:15.177Z,19.92
2022-08-02T23:47:18.229Z,20.00
2022-08-02T23:50:21.603Z,19.96
2022-08-02T23:53:25.734Z,19.94
2022-08-02T23:56:29.284Z,19.90
2022-08-02T23:59:33.001Z,19.85
